TAF KCRG
KCRG 280538Z 2806/2906 00000KT P6SM BKN200 FM281300 28005KT P6SM SCT100 BKN150 FM281700 26007KT P6SM BKN100 OVC150 FM282000 28008KT P6SM VCSH OVC080 FM290100 28007KT P6SM VCSH SCT030 BKN050 OVC080=
METAR KCRG
WC KCRG
WS KCRG
WV KCRG